sensor_id;sensor_type;location;lat;lon;timestamp;pressure;altitude;pressure_sealevel;temperature
78905;BMP280;68291;49.602;8.722;2023-09-18T00:00:30;98806.97;;;23.26
78905;BMP280;68291;49.602;8.722;2023-09-18T00:03:06;98809.28;;;23.29
78905;BMP280;68291;49.602;8.722;2023-09-18T00:05:51;98804.19;;;23.27
78905;BMP280;68291;49.602;8.722;2023-09-18T00:08:31;98799.59;;;23.29
78905;BMP280;68291;49.602;8.722;2023-09-18T00:11:08;98809.94;;;23.31
78905;BMP280;68291;49.602;8.722;2023-09-18T00:13:55;98805.50;;;23.31
78905;BMP280;68291;49.602;8.722;2023-09-18T00:16:29;98790.38;;;23.33
78905;BMP280;68291;49.602;8.722;2023-09-18T00:19:31;98779.72;;;23.35
78905;BMP280;68291;49.602;8.722;2023-09-18T00:22:23;98774.28;;;23.36
78905;BMP280;68291;49.602;8.722;2023-09-18T00:25:10;98774.13;;;23.37
78905;BMP280;68291;49.602;8.722;2023-09-18T00:28:05;98772.31;;;23.38
78905;BMP280;68291;49.602;8.722;2023-09-18T00:30:53;98766.09;;;23.39
78905;BMP280;68291;49.602;8.722;2023-09-18T00:33:34;98765.44;;;23.37
78905;BMP280;68291;49.602;8.722;2023-09-18T00:36:26;98766.09;;;23.39
78905;BMP280;68291;49.602;8.722;2023-09-18T00:39:29;98746.38;;;23.35
78905;BMP280;68291;49.602;8.722;2023-09-18T00:42:02;98741.94;;;23.36
78905;BMP280;68291;49.602;8.722;2023-09-18T00:45:00;98735.88;;;23.35
78905;BMP280;68291;49.602;8.722;2023-09-18T00:48:21;98728.50;;;23.31
78905;BMP280;68291;49.602;8.722;2023-09-18T00:51:20;98724.19;;;23.37
78905;BMP280;68291;49.602;8.722;2023-09-18T00:54:04;98723.03;;;23.40
78905;BMP280;68291;49.602;8.722;2023-09-18T00:56:37;98715.47;;;23.45
78905;BMP280;68291;49.602;8.722;2023-09-18T00:59:20;98720.41;;;23.48
78905;BMP280;68291;49.602;8.722;2023-09-18T01:01:52;98714.16;;;23.49
78905;BMP280;68291;49.602;8.722;2023-09-18T01:05:07;98723.50;;;23.51
78905;BMP280;68291;49.602;8.722;2023-09-18T01:07:58;98721.06;;;23.58
78905;BMP280;68291;49.602;8.722;2023-09-18T01:10:48;98718.75;;;23.63
78905;BMP280;68291;49.602;8.722;2023-09-18T01:13:35;98721.03;;;23.66
78905;BMP280;68291;49.602;8.722;2023-09-18T01:16:32;98712.47;;;23.72
78905;BMP280;68291;49.602;8.722;2023-09-18T01:19:39;98711.47;;;23.72
78905;BMP280;68291;49.602;8.722;2023-09-18T01:22:19;98715.41;;;23.76
78905;BMP280;68291;49.602;8.722;2023-09-18T01:25:09;98713.13;;;23.73
78905;BMP280;68291;49.602;8.722;2023-09-18T01:27:45;98703.94;;;23.70
78905;BMP280;68291;49.602;8.722;2023-09-18T01:30:39;98707.53;;;23.69
78905;BMP280;68291;49.602;8.722;2023-09-18T01:33:34;98704.75;;;23.70
78905;BMP280;68291;49.602;8.722;2023-09-18T01:36:35;98708.38;;;23.69
78905;BMP280;68291;49.602;8.722;2023-09-18T01:39:30;98708.84;;;23.72
78905;BMP280;68291;49.602;8.722;2023-09-18T01:42:12;98714.94;;;23.73
78905;BMP280;68291;49.602;8.722;2023-09-18T01:45:03;98721.81;;;23.74
78905;BMP280;68291;49.602;8.722;2023-09-18T01:47:34;98717.38;;;23.74
78905;BMP280;68291;49.602;8.722;2023-09-18T01:50:19;98721.66;;;23.75
78905;BMP280;68291;49.602;8.722;2023-09-18T01:53:08;98723.94;;;23.78
78905;BMP280;68291;49.602;8.722;2023-09-18T01:55:53;98720.81;;;23.83
78905;BMP280;68291;49.602;8.722;2023-09-18T01:58:51;98734.09;;;23.89
78905;BMP280;68291;49.602;8.722;2023-09-18T02:01:36;98757.09;;;23.95
78905;BMP280;68291;49.602;8.722;2023-09-18T02:04:30;98798.66;;;24.00
78905;BMP280;68291;49.602;8.722;2023-09-18T02:07:33;98820.06;;;23.89
78905;BMP280;68291;49.602;8.722;2023-09-18T02:10:13;98848.34;;;23.79
78905;BMP280;68291;49.602;8.722;2023-09-18T02:13:13;98863.97;;;23.72
78905;BMP280;68291;49.602;8.722;2023-09-18T02:16:39;98859.69;;;23.72
78905;BMP280;68291;49.602;8.722;2023-09-18T02:19:12;98850.66;;;23.66
78905;BMP280;68291;49.602;8.722;2023-09-18T02:21:51;98851.63;;;23.49
78905;BMP280;68291;49.602;8.722;2023-09-18T02:24:48;98829.13;;;23.31
78905;BMP280;68291;49.602;8.722;2023-09-18T02:27:20;98818.47;;;23.25
78905;BMP280;68291;49.602;8.722;2023-09-18T02:30:12;98812.25;;;23.18
78905;BMP280;68291;49.602;8.722;2023-09-18T02:32:51;98794.00;;;23.16
78905;BMP280;68291;49.602;8.722;2023-09-18T02:35:52;98788.13;;;23.06
78905;BMP280;68291;49.602;8.722;2023-09-18T02:38:43;98774.63;;;22.86
78905;BMP280;68291;49.602;8.722;2023-09-18T02:41:26;98789.66;;;22.76
78905;BMP280;68291;49.602;8.722;2023-09-18T02:44:16;98802.47;;;22.71
78905;BMP280;68291;49.602;8.722;2023-09-18T02:46:49;98817.41;;;22.70
78905;BMP280;68291;49.602;8.722;2023-09-18T02:49:39;98820.19;;;22.69
78905;BMP280;68291;49.602;8.722;2023-09-18T02:52:34;98811.16;;;22.64
78905;BMP280;68291;49.602;8.722;2023-09-18T02:55:33;98817.22;;;22.64
78905;BMP280;68291;49.602;8.722;2023-09-18T02:58:24;98817.53;;;22.61
78905;BMP280;68291;49.602;8.722;2023-09-18T03:01:08;98810.28;;;22.47
78905;BMP280;68291;49.602;8.722;2023-09-18T03:03:53;98810.81;;;22.51
78905;BMP280;68291;49.602;8.722;2023-09-18T03:06:48;98792.56;;;22.41
78905;BMP280;68291;49.602;8.722;2023-09-18T03:09:25;98786.63;;;22.39
78905;BMP280;68291;49.602;8.722;2023-09-18T03:12:11;98767.63;;;22.37
78905;BMP280;68291;49.602;8.722;2023-09-18T03:14:42;98759.25;;;22.42
78905;BMP280;68291;49.602;8.722;2023-09-18T03:17:13;98751.88;;;22.37
78905;BMP280;68291;49.602;8.722;2023-09-18T03:19:50;98747.59;;;22.29
78905;BMP280;68291;49.602;8.722;2023-09-18T03:22:39;98744.31;;;22.19
78905;BMP280;68291;49.602;8.722;2023-09-18T03:25:10;98735.09;;;22.15
78905;BMP280;68291;49.602;8.722;2023-09-18T03:28:08;98735.84;;;22.07
78905;BMP280;68291;49.602;8.722;2023-09-18T03:30:50;98741.25;;;21.98
78905;BMP280;68291;49.602;8.722;2023-09-18T03:33:43;98746.81;;;21.95
78905;BMP280;68291;49.602;8.722;2023-09-18T03:36:38;98753.19;;;21.93
78905;BMP280;68291;49.602;8.722;2023-09-18T03:39:54;98754.97;;;21.92
78905;BMP280;68291;49.602;8.722;2023-09-18T03:42:50;98754.16;;;21.92
78905;BMP280;68291;49.602;8.722;2023-09-18T03:45:45;98763.50;;;21.94
78905;BMP280;68291;49.602;8.722;2023-09-18T03:48:28;98768.94;;;22.00
78905;BMP280;68291;49.602;8.722;2023-09-18T03:51:16;98758.78;;;22.05
78905;BMP280;68291;49.602;8.722;2023-09-18T03:54:05;98774.06;;;22.10
78905;BMP280;68291;49.602;8.722;2023-09-18T03:57:04;98777.88;;;22.15
78905;BMP280;68291;49.602;8.722;2023-09-18T03:59:44;98790.50;;;22.20
78905;BMP280;68291;49.602;8.722;2023-09-18T04:02:35;98792.84;;;22.23
78905;BMP280;68291;49.602;8.722;2023-09-18T04:05:18;98786.59;;;22.24
78905;BMP280;68291;49.602;8.722;2023-09-18T04:08:07;98798.09;;;22.23
78905;BMP280;68291;49.602;8.722;2023-09-18T04:11:06;98804.63;;;22.19
78905;BMP280;68291;49.602;8.722;2023-09-18T04:14:04;98797.38;;;22.13
78905;BMP280;68291;49.602;8.722;2023-09-18T04:17:02;98805.25;;;22.13
78905;BMP280;68291;49.602;8.722;2023-09-18T04:19:42;98811.59;;;22.10
78905;BMP280;68291;49.602;8.722;2023-09-18T04:22:13;98815.03;;;22.11
78905;BMP280;68291;49.602;8.722;2023-09-18T04:24:58;98804.25;;;22.14
78905;BMP280;68291;49.602;8.722;2023-09-18T04:27:50;98808.84;;;22.12
78905;BMP280;68291;49.602;8.722;2023-09-18T04:30:52;98793.72;;;22.06
78905;BMP280;68291;49.602;8.722;2023-09-18T04:33:45;98774.69;;;22.04
78905;BMP280;68291;49.602;8.722;2023-09-18T04:36:32;98757.31;;;22.03
78905;BMP280;68291;49.602;8.722;2023-09-18T04:39:13;98736.19;;;22.04
78905;BMP280;68291;49.602;8.722;2023-09-18T04:41:44;98736.84;;;22.06
78905;BMP280;68291;49.602;8.722;2023-09-18T04:44:30;98727.19;;;22.07
78905;BMP280;68291;49.602;8.722;2023-09-18T04:47:17;98722.94;;;22.06
78905;BMP280;68291;49.602;8.722;2023-09-18T04:49:58;98728.31;;;22.04
78905;BMP280;68291;49.602;8.722;2023-09-18T04:52:54;98733.38;;;21.98
78905;BMP280;68291;49.602;8.722;2023-09-18T04:55:43;98730.41;;;21.93
78905;BMP280;68291;49.602;8.722;2023-09-18T04:58:39;98728.09;;;21.90
78905;BMP280;68291;49.602;8.722;2023-09-18T05:01:36;98732.84;;;21.87
78905;BMP280;68291;49.602;8.722;2023-09-18T05:04:19;98730.03;;;21.80
78905;BMP280;68291;49.602;8.722;2023-09-18T05:06:57;98728.19;;;21.73
78905;BMP280;68291;49.602;8.722;2023-09-18T05:09:47;98708.34;;;21.70
78905;BMP280;68291;49.602;8.722;2023-09-18T05:12:40;98699.22;;;21.74
78905;BMP280;68291;49.602;8.722;2023-09-18T05:15:20;98695.59;;;21.75
78905;BMP280;68291;49.602;8.722;2023-09-18T05:18:11;98705.59;;;21.72
78905;BMP280;68291;49.602;8.722;2023-09-18T05:21:30;98709.97;;;21.63
78905;BMP280;68291;49.602;8.722;2023-09-18T05:24:19;98707.69;;;21.61
78905;BMP280;68291;49.602;8.722;2023-09-18T05:27:06;98713.88;;;21.60
78905;BMP280;68291;49.602;8.722;2023-09-18T05:29:41;98714.88;;;21.59
78905;BMP280;68291;49.602;8.722;2023-09-18T05:32:37;98716.50;;;21.60
78905;BMP280;68291;49.602;8.722;2023-09-18T05:35:18;98705.06;;;21.61
78905;BMP280;68291;49.602;8.722;2023-09-18T05:38:15;98728.13;;;21.57
78905;BMP280;68291;49.602;8.722;2023-09-18T05:40:48;98737.56;;;21.50
78905;BMP280;68291;49.602;8.722;2023-09-18T05:43:45;98749.81;;;21.42
78905;BMP280;68291;49.602;8.722;2023-09-18T05:46:33;98757.44;;;21.35
78905;BMP280;68291;49.602;8.722;2023-09-18T05:49:05;98751.19;;;21.36
78905;BMP280;68291;49.602;8.722;2023-09-18T05:52:03;98768.03;;;21.34
78905;BMP280;68291;49.602;8.722;2023-09-18T05:55:03;98782.13;;;21.33
78905;BMP280;68291;49.602;8.722;2023-09-18T05:58:00;98783.50;;;21.37
78905;BMP280;68291;49.602;8.722;2023-09-18T06:00:34;98790.13;;;21.49
78905;BMP280;68291;49.602;8.722;2023-09-18T06:03:17;98787.09;;;21.61
78905;BMP280;68291;49.602;8.722;2023-09-18T06:05:51;98774.88;;;21.69
78905;BMP280;68291;49.602;8.722;2023-09-18T06:08:33;98776.19;;;21.73
78905;BMP280;68291;49.602;8.722;2023-09-18T06:11:20;98761.97;;;21.76
78905;BMP280;68291;49.602;8.722;2023-09-18T06:14:00;98761.47;;;21.80
78905;BMP280;68291;49.602;8.722;2023-09-18T06:16:39;98754.97;;;21.84
78905;BMP280;68291;49.602;8.722;2023-09-18T06:19:22;98766.44;;;21.91
78905;BMP280;68291;49.602;8.722;2023-09-18T06:22:05;98785.63;;;21.92
78905;BMP280;68291;49.602;8.722;2023-09-18T06:24:58;98787.09;;;21.94
78905;BMP280;68291;49.602;8.722;2023-09-18T06:27:50;98772.69;;;21.98
78905;BMP280;68291;49.602;8.722;2023-09-18T06:30:46;98783.22;;;22.06
78905;BMP280;68291;49.602;8.722;2023-09-18T06:33:28;98777.66;;;22.09
78905;BMP280;68291;49.602;8.722;2023-09-18T06:36:47;98788.16;;;22.09
78905;BMP280;68291;49.602;8.722;2023-09-18T06:39:44;98795.06;;;22.10
78905;BMP280;68291;49.602;8.722;2023-09-18T06:42:16;98797.38;;;22.13
78905;BMP280;68291;49.602;8.722;2023-09-18T06:45:01;98819.69;;;22.17
78905;BMP280;68291;49.602;8.722;2023-09-18T06:47:40;98834.13;;;22.21
78905;BMP280;68291;49.602;8.722;2023-09-18T06:50:21;98837.09;;;22.26
78905;BMP280;68291;49.602;8.722;2023-09-18T06:52:54;98841.41;;;22.34
78905;BMP280;68291;49.602;8.722;2023-09-18T06:55:40;98840.44;;;22.43
78905;BMP280;68291;49.602;8.722;2023-09-18T06:58:28;98838.47;;;22.45
78905;BMP280;68291;49.602;8.722;2023-09-18T07:01:29;98838.47;;;22.45
78905;BMP280;68291;49.602;8.722;2023-09-18T07:04:29;98864.38;;;22.48
78905;BMP280;68291;49.602;8.722;2023-09-18T07:07:25;98862.44;;;22.50
78905;BMP280;68291;49.602;8.722;2023-09-18T07:10:14;98861.31;;;22.53
78905;BMP280;68291;49.602;8.722;2023-09-18T07:13:17;98858.50;;;22.54
78905;BMP280;68291;49.602;8.722;2023-09-18T07:16:10;98861.81;;;22.56
78905;BMP280;68291;49.602;8.722;2023-09-18T07:19:07;98867.72;;;22.58
78905;BMP280;68291;49.602;8.722;2023-09-18T07:21:45;98871.16;;;22.59
78905;BMP280;68291;49.602;8.722;2023-09-18T07:24:16;98864.09;;;22.59
78905;BMP280;68291;49.602;8.722;2023-09-18T07:27:12;98870.88;;;22.62
78905;BMP280;68291;49.602;8.722;2023-09-18T07:30:00;98874.31;;;22.62
78905;BMP280;68291;49.602;8.722;2023-09-18T07:32:34;98875.63;;;22.66
78905;BMP280;68291;49.602;8.722;2023-09-18T07:35:09;98873.00;;;22.66
78905;BMP280;68291;49.602;8.722;2023-09-18T07:37:52;98881.22;;;22.71
78905;BMP280;68291;49.602;8.722;2023-09-18T07:40:35;98878.91;;;22.76
78905;BMP280;68291;49.602;8.722;2023-09-18T07:43:28;98888.63;;;22.83
78905;BMP280;68291;49.602;8.722;2023-09-18T07:46:01;98874.06;;;22.89
78905;BMP280;68291;49.602;8.722;2023-09-18T07:48:51;98869.00;;;22.95
78905;BMP280;68291;49.602;8.722;2023-09-18T07:51:32;98880.31;;;22.96
78905;BMP280;68291;49.602;8.722;2023-09-18T07:54:23;98883.13;;;23.02
78905;BMP280;68291;49.602;8.722;2023-09-18T07:57:16;98888.53;;;23.08
78905;BMP280;68291;49.602;8.722;2023-09-18T07:59:54;98888.09;;;23.13
78905;BMP280;68291;49.602;8.722;2023-09-18T08:02:43;98901.69;;;23.16
78905;BMP280;68291;49.602;8.722;2023-09-18T08:05:30;98900.53;;;23.19
78905;BMP280;68291;49.602;8.722;2023-09-18T08:08:06;98913.38;;;23.22
78905;BMP280;68291;49.602;8.722;2023-09-18T08:11:08;98910.56;;;23.23
78905;BMP280;68291;49.602;8.722;2023-09-18T08:14:00;98916.00;;;23.30
78905;BMP280;68291;49.602;8.722;2023-09-18T08:16:57;98910.09;;;23.36
78905;BMP280;68291;49.602;8.722;2023-09-18T08:19:51;98911.41;;;23.39
78905;BMP280;68291;49.602;8.722;2023-09-18T08:22:25;98923.41;;;23.50
78905;BMP280;68291;49.602;8.722;2023-09-18T08:25:07;98914.22;;;23.54
78905;BMP280;68291;49.602;8.722;2023-09-18T08:28:00;98901.75;;;23.56
78905;BMP280;68291;49.602;8.722;2023-09-18T08:30:53;98900.78;;;23.57
78905;BMP280;68291;49.602;8.722;2023-09-18T08:33:31;98900.28;;;23.61
78905;BMP280;68291;49.602;8.722;2023-09-18T08:36:17;98891.25;;;23.64
78905;BMP280;68291;49.602;8.722;2023-09-18T08:38:58;98890.59;;;23.62
78905;BMP280;68291;49.602;8.722;2023-09-18T08:41:43;98887.09;;;23.53
78905;BMP280;68291;49.602;8.722;2023-09-18T08:44:31;98892.84;;;23.49
78905;BMP280;68291;49.602;8.722;2023-09-18T08:47:05;98873.31;;;23.51
78905;BMP280;68291;49.602;8.722;2023-09-18T08:49:46;98873.50;;;23.58
78905;BMP280;68291;49.602;8.722;2023-09-18T08:52:28;98871.53;;;23.60
78905;BMP280;68291;49.602;8.722;2023-09-18T08:55:24;98862.63;;;23.53
78905;BMP280;68291;49.602;8.722;2023-09-18T08:58:54;98863.63;;;23.44
78905;BMP280;68291;49.602;8.722;2023-09-18T09:01:45;98853.28;;;23.42
78905;BMP280;68291;49.602;8.722;2023-09-18T09:04:41;98853.44;;;23.41
78905;BMP280;68291;49.602;8.722;2023-09-18T09:07:28;98855.22;;;23.40
78905;BMP280;68291;49.602;8.722;2023-09-18T09:10:13;98852.44;;;23.42
78905;BMP280;68291;49.602;8.722;2023-09-18T09:12:58;98862.31;;;23.48
78905;BMP280;68291;49.602;8.722;2023-09-18T09:15:45;98864.44;;;23.52
78905;BMP280;68291;49.602;8.722;2023-09-18T09:18:50;98870.88;;;23.58
78905;BMP280;68291;49.602;8.722;2023-09-18T09:21:41;98871.03;;;23.64
78905;BMP280;68291;49.602;8.722;2023-09-18T09:24:41;98871.19;;;23.78
78905;BMP280;68291;49.602;8.722;2023-09-18T09:27:43;98863.25;;;23.94
78905;BMP280;68291;49.602;8.722;2023-09-18T09:30:28;98862.91;;;24.05
78905;BMP280;68291;49.602;8.722;2023-09-18T09:33:29;98891.81;;;24.13
78905;BMP280;68291;49.602;8.722;2023-09-18T09:36:21;98903.97;;;24.22
78905;BMP280;68291;49.602;8.722;2023-09-18T09:38:58;98894.44;;;24.29
78905;BMP280;68291;49.602;8.722;2023-09-18T09:41:46;98899.69;;;24.29
78905;BMP280;68291;49.602;8.722;2023-09-18T09:44:28;98922.41;;;24.30
78905;BMP280;68291;49.602;8.722;2023-09-18T09:47:09;98928.31;;;24.32
78905;BMP280;68291;49.602;8.722;2023-09-18T09:50:08;98928.78;;;24.35
78905;BMP280;68291;49.602;8.722;2023-09-18T09:52:56;98930.44;;;24.36
78905;BMP280;68291;49.602;8.722;2023-09-18T09:55:54;98919.56;;;24.39
78905;BMP280;68291;49.602;8.722;2023-09-18T09:58:37;98921.09;;;24.34
78905;BMP280;68291;49.602;8.722;2023-09-18T10:01:42;98920.59;;;24.30
78905;BMP280;68291;49.602;8.722;2023-09-18T10:04:39;98899.88;;;24.27
78905;BMP280;68291;49.602;8.722;2023-09-18T10:07:46;98908.09;;;24.24
78905;BMP280;68291;49.602;8.722;2023-09-18T10:10:36;98900.22;;;24.24
78905;BMP280;68291;49.602;8.722;2023-09-18T10:13:16;98889.19;;;24.21
78905;BMP280;68291;49.602;8.722;2023-09-18T10:15:50;98883.28;;;24.27
78905;BMP280;68291;49.602;8.722;2023-09-18T10:18:54;98876.16;;;24.35
78905;BMP280;68291;49.602;8.722;2023-09-18T10:21:59;98877.31;;;24.33
78905;BMP280;68291;49.602;8.722;2023-09-18T10:25:18;98881.91;;;24.39
78905;BMP280;68291;49.602;8.722;2023-09-18T10:28:03;98899.81;;;24.43
78905;BMP280;68291;49.602;8.722;2023-09-18T10:30:57;98900.47;;;24.45
78905;BMP280;68291;49.602;8.722;2023-09-18T10:33:49;98899.28;;;24.55
78905;BMP280;68291;49.602;8.722;2023-09-18T10:36:31;98895.19;;;24.53
78905;BMP280;68291;49.602;8.722;2023-09-18T10:39:17;98894.03;;;24.55
78905;BMP280;68291;49.602;8.722;2023-09-18T10:42:14;98885.25;;;24.63
78905;BMP280;68291;49.602;8.722;2023-09-18T10:44:59;98903.16;;;24.67
78905;BMP280;68291;49.602;8.722;2023-09-18T10:47:56;98896.13;;;24.68
78905;BMP280;68291;49.602;8.722;2023-09-18T10:50:52;98906.44;;;24.77
78905;BMP280;68291;49.602;8.722;2023-09-18T10:53:49;98900.00;;;24.79
78905;BMP280;68291;49.602;8.722;2023-09-18T10:56:32;98900.28;;;24.84
78905;BMP280;68291;49.602;8.722;2023-09-18T10:59:27;98901.09;;;24.93
78905;BMP280;68291;49.602;8.722;2023-09-18T11:02:22;98909.44;;;25.04
78905;BMP280;68291;49.602;8.722;2023-09-18T11:05:07;98898.19;;;25.10
78905;BMP280;68291;49.602;8.722;2023-09-18T11:08:33;98890.09;;;25.19
78905;BMP280;68291;49.602;8.722;2023-09-18T11:11:25;98915.38;;;25.28
78905;BMP280;68291;49.602;8.722;2023-09-18T11:14:11;98891.59;;;25.36
78905;BMP280;68291;49.602;8.722;2023-09-18T11:16:57;98896.16;;;25.42
78905;BMP280;68291;49.602;8.722;2023-09-18T11:19:42;98896.28;;;25.48
78905;BMP280;68291;49.602;8.722;2023-09-18T11:22:37;98904.97;;;25.57
78905;BMP280;68291;49.602;8.722;2023-09-18T11:25:47;98901.28;;;25.66
78905;BMP280;68291;49.602;8.722;2023-09-18T11:28:49;98889.38;;;25.70
78905;BMP280;68291;49.602;8.722;2023-09-18T11:31:48;98896.75;;;25.74
78905;BMP280;68291;49.602;8.722;2023-09-18T11:35:06;98895.56;;;25.77
78905;BMP280;68291;49.602;8.722;2023-09-18T11:38:06;98892.16;;;25.90
78905;BMP280;68291;49.602;8.722;2023-09-18T11:40:39;98890.16;;;25.92
78905;BMP280;68291;49.602;8.722;2023-09-18T11:43:25;98893.44;;;25.94
78905;BMP280;68291;49.602;8.722;2023-09-18T11:46:08;98909.66;;;26.06
78905;BMP280;68291;49.602;8.722;2023-09-18T11:48:59;98893.91;;;26.12
78905;BMP280;68291;49.602;8.722;2023-09-18T11:51:42;98892.56;;;26.16
78905;BMP280;68291;49.602;8.722;2023-09-18T11:54:40;98889.63;;;26.11
78905;BMP280;68291;49.602;8.722;2023-09-18T11:57:37;98888.00;;;26.10
78905;BMP280;68291;49.602;8.722;2023-09-18T12:00:33;98890.34;;;26.05
78905;BMP280;68291;49.602;8.722;2023-09-18T12:03:54;98898.91;;;26.07
78905;BMP280;68291;49.602;8.722;2023-09-18T12:06:55;98895.44;;;26.07
78905;BMP280;68291;49.602;8.722;2023-09-18T12:09:51;98896.56;;;26.12
78905;BMP280;68291;49.602;8.722;2023-09-18T12:13:06;98898.78;;;26.23
78905;BMP280;68291;49.602;8.722;2023-09-18T12:16:00;98892.03;;;26.35
78905;BMP280;68291;49.602;8.722;2023-09-18T12:18:55;98894.19;;;26.46
78905;BMP280;68291;49.602;8.722;2023-09-18T12:21:29;98903.41;;;26.64
78905;BMP280;68291;49.602;8.722;2023-09-18T12:24:22;98893.09;;;26.83
78905;BMP280;68291;49.602;8.722;2023-09-18T12:27:07;98888.47;;;26.85
78905;BMP280;68291;49.602;8.722;2023-09-18T12:29:52;98887.09;;;26.89
78905;BMP280;68291;49.602;8.722;2023-09-18T12:32:50;98895.66;;;26.91
78905;BMP280;68291;49.602;8.722;2023-09-18T12:35:32;98888.97;;;26.95
78905;BMP280;68291;49.602;8.722;2023-09-18T12:38:17;98906.72;;;27.01
78905;BMP280;68291;49.602;8.722;2023-09-18T12:41:24;98894.72;;;26.98
78905;BMP280;68291;49.602;8.722;2023-09-18T12:44:10;98894.53;;;27.00
78905;BMP280;68291;49.602;8.722;2023-09-18T12:47:17;98896.53;;;27.18
78905;BMP280;68291;49.602;8.722;2023-09-18T12:50:03;98900.72;;;27.27
78905;BMP280;68291;49.602;8.722;2023-09-18T12:52:48;98905.53;;;27.38
78905;BMP280;68291;49.602;8.722;2023-09-18T12:55:41;98898.97;;;27.34
78905;BMP280;68291;49.602;8.722;2023-09-18T12:58:59;98897.81;;;27.22
78905;BMP280;68291;49.602;8.722;2023-09-18T13:02:03;98884.84;;;27.07
78905;BMP280;68291;49.602;8.722;2023-09-18T13:04:53;98877.50;;;26.88
78905;BMP280;68291;49.602;8.722;2023-09-18T13:07:27;98892.38;;;26.89
78905;BMP280;68291;49.602;8.722;2023-09-18T13:10:17;98886.22;;;27.03
78905;BMP280;68291;49.602;8.722;2023-09-18T13:13:25;98874.47;;;27.26
78905;BMP280;68291;49.602;8.722;2023-09-18T13:16:23;98876.63;;;27.37
78905;BMP280;68291;49.602;8.722;2023-09-18T13:19:14;98873.94;;;27.51
78905;BMP280;68291;49.602;8.722;2023-09-18T13:22:26;98860.25;;;27.68
78905;BMP280;68291;49.602;8.722;2023-09-18T13:25:24;98864.34;;;27.71
78905;BMP280;68291;49.602;8.722;2023-09-18T13:28:09;98867.28;;;27.61
78905;BMP280;68291;49.602;8.722;2023-09-18T13:30:48;98863.22;;;27.59
78905;BMP280;68291;49.602;8.722;2023-09-18T13:33:40;98878.31;;;27.65
78905;BMP280;68291;49.602;8.722;2023-09-18T13:36:20;98869.56;;;27.64
78905;BMP280;68291;49.602;8.722;2023-09-18T13:39:08;98872.34;;;27.56
78905;BMP280;68291;49.602;8.722;2023-09-18T13:42:05;98854.91;;;27.41
78905;BMP280;68291;49.602;8.722;2023-09-18T13:44:56;98856.44;;;27.36
78905;BMP280;68291;49.602;8.722;2023-09-18T13:47:47;98865.50;;;27.41
78905;BMP280;68291;49.602;8.722;2023-09-18T13:51:02;98855.22;;;27.53
78905;BMP280;68291;49.602;8.722;2023-09-18T13:54:01;98855.09;;;27.60
78905;BMP280;68291;49.602;8.722;2023-09-18T13:56:59;98849.97;;;27.59
78905;BMP280;68291;49.602;8.722;2023-09-18T13:59:45;98854.47;;;27.58
78905;BMP280;68291;49.602;8.722;2023-09-18T14:02:19;98860.97;;;27.56
78905;BMP280;68291;49.602;8.722;2023-09-18T14:05:09;98838.59;;;27.58
78905;BMP280;68291;49.602;8.722;2023-09-18T14:07:50;98842.78;;;27.74
78905;BMP280;68291;49.602;8.722;2023-09-18T14:10:35;98828.72;;;28.00
78905;BMP280;68291;49.602;8.722;2023-09-18T14:13:31;98825.25;;;28.27
78905;BMP280;68291;49.602;8.722;2023-09-18T14:16:11;98825.72;;;28.50
78905;BMP280;68291;49.602;8.722;2023-09-18T14:18:46;98819.34;;;28.84
78905;BMP280;68291;49.602;8.722;2023-09-18T14:21:44;98814.38;;;29.21
78905;BMP280;68291;49.602;8.722;2023-09-18T14:24:43;98815.81;;;29.62
78905;BMP280;68291;49.602;8.722;2023-09-18T14:27:38;98804.94;;;30.08
78905;BMP280;68291;49.602;8.722;2023-09-18T14:30:34;98807.03;;;30.63
78905;BMP280;68291;49.602;8.722;2023-09-18T14:33:43;98795.91;;;31.15
78905;BMP280;68291;49.602;8.722;2023-09-18T14:36:39;98797.91;;;31.50
78905;BMP280;68291;49.602;8.722;2023-09-18T14:39:19;98807.41;;;31.64
78905;BMP280;68291;49.602;8.722;2023-09-18T14:42:25;98801.81;;;31.72
78905;BMP280;68291;49.602;8.722;2023-09-18T14:45:21;98806.16;;;31.91
78905;BMP280;68291;49.602;8.722;2023-09-18T14:48:24;98797.59;;;32.24
78905;BMP280;68291;49.602;8.722;2023-09-18T14:51:16;98791.34;;;32.66
78905;BMP280;68291;49.602;8.722;2023-09-18T14:54:01;98785.97;;;33.01
78905;BMP280;68291;49.602;8.722;2023-09-18T14:56:57;98773.06;;;33.39
78905;BMP280;68291;49.602;8.722;2023-09-18T14:59:52;98771.25;;;33.50
78905;BMP280;68291;49.602;8.722;2023-09-18T15:02:56;98766.59;;;33.69
78905;BMP280;68291;49.602;8.722;2023-09-18T15:05:45;98760.56;;;33.96
78905;BMP280;68291;49.602;8.722;2023-09-18T15:08:34;98741.00;;;34.29
78905;BMP280;68291;49.602;8.722;2023-09-18T15:11:29;98744.91;;;34.38
78905;BMP280;68291;49.602;8.722;2023-09-18T15:14:20;98745.03;;;34.43
78905;BMP280;68291;49.602;8.722;2023-09-18T15:17:34;98734.06;;;34.56
78905;BMP280;68291;49.602;8.722;2023-09-18T15:20:27;98736.25;;;34.59
78905;BMP280;68291;49.602;8.722;2023-09-18T15:22:59;98729.94;;;34.65
78905;BMP280;68291;49.602;8.722;2023-09-18T15:25:33;98728.88;;;34.77
78905;BMP280;68291;49.602;8.722;2023-09-18T15:28:21;98737.66;;;35.05
78905;BMP280;68291;49.602;8.722;2023-09-18T15:31:04;98750.63;;;35.13
78905;BMP280;68291;49.602;8.722;2023-09-18T15:33:56;98743.97;;;35.16
78905;BMP280;68291;49.602;8.722;2023-09-18T15:36:52;98731.38;;;35.44
78905;BMP280;68291;49.602;8.722;2023-09-18T15:39:50;98732.41;;;35.43
78905;BMP280;68291;49.602;8.722;2023-09-18T15:42:43;98727.91;;;34.99
78905;BMP280;68291;49.602;8.722;2023-09-18T15:45:38;98731.47;;;34.61
78905;BMP280;68291;49.602;8.722;2023-09-18T15:48:29;98735.75;;;34.23
78905;BMP280;68291;49.602;8.722;2023-09-18T15:51:15;98738.81;;;34.04
78905;BMP280;68291;49.602;8.722;2023-09-18T15:53:50;98726.41;;;33.75
78905;BMP280;68291;49.602;8.722;2023-09-18T15:56:28;98728.53;;;33.50
78905;BMP280;68291;49.602;8.722;2023-09-18T15:59:16;98733.75;;;33.05
78905;BMP280;68291;49.602;8.722;2023-09-18T16:01:59;98734.69;;;32.70
78905;BMP280;68291;49.602;8.722;2023-09-18T16:04:51;98731.44;;;32.39
78905;BMP280;68291;49.602;8.722;2023-09-18T16:07:59;98735.88;;;32.09
78905;BMP280;68291;49.602;8.722;2023-09-18T16:11:10;98725.13;;;31.80
78905;BMP280;68291;49.602;8.722;2023-09-18T16:14:00;98730.13;;;31.53
78905;BMP280;68291;49.602;8.722;2023-09-18T16:16:56;98722.00;;;31.17
78905;BMP280;68291;49.602;8.722;2023-09-18T16:19:32;98718.19;;;30.83